Hamilton, GA

3:08 PM EDT on July 26, 2017 (GMT -0400)
Hamilton - Calhoun Road | | Change Station

Elev 604 ft 32.73 °N, 84.90 °W | Updated 21 seconds ago

Mostly Cloudy
Mostly Cloudy
95.2 °F
Feels Like 104 °F
N
3.7
Wind Variable Wind from SSW

Today
High -- | Low -- °F
--% Chance of Precip.
Yesterday
High -- | Low -- °F
Precip. -- in
Pressure 30.04 in
Visibility 9.0 miles
Clouds Scattered Clouds 4700 ft
Mostly Cloudy 6000 ft
Mostly Cloudy 7000 ft
Heat Index 104 °F
Dew Point 72 °F
Humidity 48%
Rainfall 0.00 in
Snow Depth Not available.
6:49 AM 8:42 PM
Waxing Crescent, 15% visible
METAR KCSG 261851Z 08003KT 9SM VCTS -RA SCT047 BKN060 BKN070 31/23 A3006 RMK AO2 LTG DSNT S AND SW RAB39 SLP173 P0000 T03110228
Pressure 30.04 in
Visibility 9.0 miles
Clouds Scattered Clouds 4700 ft
Mostly Cloudy 6000 ft
Mostly Cloudy 7000 ft
Heat Index 104 °F
Dew Point 72 °F
Humidity 48%
Rainfall 0.00 in
Snow Depth Not available.
6:49 AM 8:42 PM
Waxing Crescent, 15% visible
METAR KCSG 261851Z 08003KT 9SM VCTS -RA SCT047 BKN060 BKN070 31/23 A3006 RMK AO2 LTG DSNT S AND SW RAB39 SLP173 P0000 T03110228

Get Severe Weather Alerts

Thanks for signing up!

Be on the lookout for a verification email in your inbox.

You'll start receiving the daily forecast at 6 AM.

×

10-Day Weather Forecast

Almanac

Astronomy

Jul. 26, 2017 Rise Set
Actual Time
Civil Twilight
Nautical Twilight
Astronomical Twilight
Moon
Length of Visible Light
Length of Day
Tomorrow will be .
, % of the Moon is Illuminated

Today's Extremes

State Highs State Lows

Community

WunderPhotos

Category 6

Welcome to Category 6. This is the collective home for Weather Underground's featured writeups by Dr. Jeff Masters (right), Bob Henson (left), Chris Burt, and other regular contributors.

Nearby

Air Quality

  Air Quality AQ Index Pollutant
Not available.

Snow Depth

Station Depth Elevation

Earthquake Activity

City Distance Mag. Time & Date
Minimum magnitude displayed is 2.5.

Coastal Water Temperatures

Place Temperature

Stations

Nearby Weather Stations

Station Location Temp. Windchill Dew Point Humidity Wind Precip. Elev Updated Type
                   

Watches & Warnings

There are currently no watches in effect.